Time;durP1;ratioP1;P1;durP2;ratioP2;P2;SDS_P1;SDS_P2;PMS_P1;PMS_P2;Temp;Humidity;BMP_temperature;BMP_pressure;BME280_temperature;BME280_humidity;BME280_pressure;Samples;Min_cycle;Max_cycle;Signal;HPM_P1;HPM_P2
2021/01/22 00:02:15;;;;;;;0.30;0.30;;;9.40;77.10;;;;;;5092228;28;20077;-59
2021/01/22 00:04:42;;;;;;;0.40;0.40;;;9.40;77.10;;;;;;5092941;28;20032;-59
2021/01/22 00:07:08;;;;;;;2.47;0.30;;;9.40;77.20;;;;;;5096291;28;20028;-60
2021/01/22 00:09:34;;;;;;;1.15;0.50;;;9.40;77.20;;;;;;5096143;28;20111;-59
2021/01/22 00:11:59;;;;;;;2.75;0.63;;;9.40;77.30;;;;;;5099224;28;20056;-60
2021/01/22 00:14:25;;;;;;;0.55;0.30;;;9.40;77.40;;;;;;5106106;28;20032;-60
2021/01/22 00:16:51;;;;;;;0.55;0.40;;;9.30;77.40;;;;;;5095604;28;20032;-60
2021/01/22 00:19:16;;;;;;;1.17;0.57;;;9.30;77.30;;;;;;5095459;28;20024;-60
2021/01/22 00:21:42;;;;;;;0.98;0.45;;;9.30;77.30;;;;;;5095949;28;20040;-59
2021/01/22 00:24:07;;;;;;;0.40;0.40;;;9.30;77.30;;;;;;5095720;28;20036;-60
2021/01/22 00:26:33;;;;;;;1.80;0.50;;;9.20;77.40;;;;;;5094869;28;20047;-60
2021/01/22 00:28:59;;;;;;;0.57;0.50;;;9.20;77.50;;;;;;5095818;28;20030;-60
2021/01/22 00:31:24;;;;;;;0.38;0.38;;;9.20;77.30;;;;;;5095719;28;20036;-60
2021/01/22 00:33:50;;;;;;;1.55;0.45;;;9.10;77.20;;;;;;5094781;28;20471;-59
2021/01/22 00:36:16;;;;;;;0.30;0.30;;;9.10;77.30;;;;;;5095413;28;20373;-60
2021/01/22 00:38:41;;;;;;;7.60;0.35;;;9.10;77.40;;;;;;5095506;28;20028;-59
2021/01/22 00:41:07;;;;;;;1.52;0.68;;;9.00;77.50;;;;;;5094644;28;20097;-59
2021/01/22 00:43:33;;;;;;;3.55;0.52;;;8.90;77.60;;;;;;5095317;28;20024;-60
2021/01/22 00:45:58;;;;;;;1.73;0.70;;;8.90;77.70;;;;;;5095316;28;20488;-60
2021/01/22 00:48:24;;;;;;;0.20;0.20;;;8.90;77.70;;;;;;5094720;28;20538;-60
2021/01/22 00:50:50;;;;;;;0.40;0.40;;;8.90;77.80;;;;;;5095091;28;20134;-60
2021/01/22 00:53:15;;;;;;;0.45;0.40;;;8.80;77.80;;;;;;5094366;28;20047;-59
2021/01/22 00:55:41;;;;;;;2.03;0.20;;;8.80;77.90;;;;;;5093877;28;20138;-60
2021/01/22 00:58:25;;;;;;;0.20;0.20;;;8.80;78.00;;;;;;5095023;28;20039;-60
2021/01/22 01:01:03;;;;;;;0.40;0.40;;;8.80;78.00;;;;;;5093179;28;20039;-60
2021/01/22 01:03:32;;;;;;;0.20;0.20;;;8.70;78.10;;;;;;5093528;28;20111;-59
2021/01/22 01:05:59;;;;;;;0.47;0.47;;;8.70;78.20;;;;;;5094908;28;20382;-60
2021/01/22 01:08:24;;;;;;;0.30;0.30;;;8.60;78.30;;;;;;5094133;28;20058;-60
2021/01/22 01:11:22;;;;;;;0.25;0.25;;;8.60;78.50;;;;;;5064509;28;20043;-60
2021/01/22 01:13:51;;;;;;;0.80;0.70;;;8.60;78.60;;;;;;5095210;28;20119;-60
2021/01/22 01:16:23;;;;;;;0.25;0.20;;;8.50;78.60;;;;;;5099798;28;20035;-60
2021/01/22 01:18:49;;;;;;;0.38;0.35;;;8.50;78.70;;;;;;5094699;28;20036;-60
2021/01/22 01:21:15;;;;;;;0.45;0.40;;;8.50;78.80;;;;;;5093581;28;20024;-59
2021/01/22 01:23:40;;;;;;;0.20;0.20;;;8.40;78.80;;;;;;5108637;28;20528;-59
2021/01/22 01:26:06;;;;;;;1.58;0.30;;;8.40;78.90;;;;;;5094407;28;20055;-60
2021/01/22 01:28:31;;;;;;;0.30;0.30;;;8.40;78.90;;;;;;5093926;28;20712;-59
2021/01/22 01:30:57;;;;;;;2.15;0.82;;;8.40;78.90;;;;;;5094292;28;20066;-59
2021/01/22 01:33:23;;;;;;;0.20;0.20;;;8.40;78.90;;;;;;5094356;28;20032;-59
2021/01/22 01:35:51;;;;;;;0.30;0.30;;;8.30;79.00;;;;;;5093642;28;20032;-59
2021/01/22 01:38:20;;;;;;;0.40;0.40;;;8.30;79.00;;;;;;5094170;28;20522;-59
2021/01/22 01:40:46;;;;;;;0.40;0.40;;;8.30;79.30;;;;;;5094545;28;20361;-59
2021/01/22 01:43:12;;;;;;;0.35;0.35;;;8.20;79.30;;;;;;5093504;28;20028;-59
2021/01/22 01:45:40;;;;;;;0.40;0.40;;;8.10;79.40;;;;;;5094243;28;20035;-59
2021/01/22 01:48:10;;;;;;;0.20;0.20;;;8.10;79.50;;;;;;5093960;28;20032;-59
2021/01/22 01:50:36;;;;;;;0.63;0.50;;;8.00;79.60;;;;;;5093160;28;20102;-60
2021/01/22 01:53:03;;;;;;;0.30;0.30;;;8.00;79.70;;;;;;5094124;28;20483;-59
2021/01/22 01:55:30;;;;;;;0.98;0.57;;;7.90;79.80;;;;;;5094025;28;20368;-59
2021/01/22 01:57:56;;;;;;;0.80;0.60;;;7.90;79.90;;;;;;5093345;28;20039;-60
2021/01/22 02:00:23;;;;;;;0.35;0.35;;;7.80;79.90;;;;;;5093849;28;20036;-60
2021/01/22 02:02:51;;;;;;;7.65;1.15;;;7.70;80.10;;;;;;5093770;28;20035;-60
2021/01/22 02:05:17;;;;;;;0.68;0.50;;;7.70;80.30;;;;;;5103704;28;20438;-59
2021/01/22 02:07:43;;;;;;;0.63;0.55;;;7.60;80.40;;;;;;5111101;28;20492;-59
2021/01/22 02:10:09;;;;;;;2.28;0.68;;;7.60;80.60;;;;;;5110899;28;20483;-59
2021/01/22 02:12:37;;;;;;;0.75;0.70;;;7.50;80.70;;;;;;5105155;28;20032;-60
2021/01/22 02:15:04;;;;;;;0.80;0.55;;;7.50;80.90;;;;;;5105687;28;20043;-59
2021/01/22 02:17:30;;;;;;;0.60;0.60;;;7.50;81.10;;;;;;5099636;28;20397;-59
2021/01/22 02:20:21;;;;;;;1.40;0.80;;;7.40;81.10;;;;;;5103915;28;20027;-59
2021/01/22 02:22:47;;;;;;;1.17;0.60;;;7.40;81.60;;;;;;5100325;28;20048;-59
2021/01/22 02:25:14;;;;;;;1.98;0.60;;;7.30;81.60;;;;;;5099359;28;20121;-59
2021/01/22 02:27:41;;;;;;;0.63;0.60;;;7.30;81.90;;;;;;5092914;28;20030;-60
2021/01/22 02:30:08;;;;;;;0.98;0.60;;;7.30;82.10;;;;;;5093317;28;20391;-59
2021/01/22 02:32:35;;;;;;;0.77;0.73;;;7.30;82.10;;;;;;5092677;28;20412;-60
2021/01/22 02:35:06;;;;;;;1.42;0.80;;;7.20;82.20;;;;;;5093405;28;20040;-59
2021/01/22 02:37:32;;;;;;;0.68;0.60;;;7.10;82.30;;;;;;5093097;28;20610;-59
2021/01/22 02:40:02;;;;;;;0.57;0.50;;;7.10;82.60;;;;;;5092389;28;20035;-59
2021/01/22 02:42:29;;;;;;;0.38;0.38;;;7.10;82.70;;;;;;5093145;28;20415;-60
2021/01/22 02:44:55;;;;;;;0.40;0.40;;;7.10;82.80;;;;;;5093017;28;20024;-59
2021/01/22 02:47:24;;;;;;;0.60;0.60;;;7.00;82.80;;;;;;5092560;28;20039;-59
2021/01/22 02:49:51;;;;;;;1.90;0.50;;;7.10;82.90;;;;;;5111859;28;20504;-60
2021/01/22 02:52:17;;;;;;;2.15;0.60;;;7.10;82.80;;;;;;5110241;28;20031;-59
2021/01/22 02:54:45;;;;;;;0.40;0.40;;;7.10;82.80;;;;;;5107465;28;20054;-60
2021/01/22 02:57:29;;;;;;;0.52;0.52;;;7.10;82.80;;;;;;5110779;28;20050;-59
2021/01/22 03:00:17;;;;;;;0.77;0.73;;;7.10;82.80;;;;;;5109280;28;20016;-59
2021/01/22 03:02:43;;;;;;;0.75;0.40;;;7.10;82.70;;;;;;5103390;28;20032;-59
2021/01/22 03:05:13;;;;;;;1.75;0.70;;;7.10;82.70;;;;;;5108603;28;20042;-59
2021/01/22 03:07:44;;;;;;;0.70;0.40;;;7.10;82.70;;;;;;5098033;28;20040;-59
2021/01/22 03:10:11;;;;;;;0.30;0.30;;;7.10;82.70;;;;;;5099371;28;20501;-59
2021/01/22 03:12:37;;;;;;;0.40;0.40;;;7.20;82.60;;;;;;5097762;28;20028;-59
2021/01/22 03:15:04;;;;;;;1.00;0.90;;;7.20;82.60;;;;;;5100237;28;20126;-59
2021/01/22 03:17:30;;;;;;;0.40;0.40;;;7.20;82.40;;;;;;5097459;28;20038;-59
2021/01/22 03:19:56;;;;;;;0.30;0.30;;;7.20;82.30;;;;;;5101610;28;20028;-60
2021/01/22 03:22:22;;;;;;;0.30;0.30;;;7.20;82.20;;;;;;5096543;28;20028;-59
2021/01/22 03:24:48;;;;;;;0.75;0.52;;;7.20;82.10;;;;;;5101336;28;20096;-59
2021/01/22 03:27:15;;;;;;;0.50;0.50;;;7.20;82.10;;;;;;5092662;28;20094;-59
2021/01/22 03:29:41;;;;;;;1.83;0.88;;;7.20;82.10;;;;;;5092041;28;20136;-59
2021/01/22 03:32:09;;;;;;;1.05;0.60;;;7.20;82.10;;;;;;5092517;28;20028;-60
2021/01/22 03:34:35;;;;;;;0.60;0.60;;;7.10;82.10;;;;;;5092161;28;20111;-59
2021/01/22 03:37:02;;;;;;;0.63;0.60;;;7.10;82.10;;;;;;5091875;28;20145;-59
2021/01/22 03:39:28;;;;;;;1.23;1.13;;;7.20;82.30;;;;;;5093586;28;20035;-59
2021/01/22 03:41:54;;;;;;;2.78;0.90;;;7.10;82.30;;;;;;5095761;28;20039;-59
2021/01/22 03:44:20;;;;;;;1.10;1.00;;;7.10;82.30;;;;;;5096581;28;20028;-59
2021/01/22 03:46:47;;;;;;;0.75;0.75;;;7.10;82.50;;;;;;5096449;28;20487;-59
2021/01/22 03:49:13;;;;;;;6.32;1.23;;;7.00;82.50;;;;;;5095613;28;20048;-60
2021/01/22 03:51:39;;;;;;;4.18;0.80;;;7.00;82.60;;;;;;5096177;28;20052;-59
2021/01/22 03:54:05;;;;;;;6.15;1.17;;;7.00;82.70;;;;;;5096602;28;20055;-59
2021/01/22 03:56:32;;;;;;;1.65;1.00;;;7.00;82.60;;;;;;5095377;28;20040;-59
2021/01/22 03:58:57;;;;;;;1.42;1.08;;;7.00;82.60;;;;;;5096259;28;20093;-59
2021/01/22 04:01:23;;;;;;;3.17;1.45;;;7.00;82.60;;;;;;5096096;28;20032;-59
2021/01/22 04:03:49;;;;;;;13.93;2.67;;;7.00;82.70;;;;;;5095359;28;20554;-59
2021/01/22 04:06:15;;;;;;;1.40;1.00;;;7.00;82.70;;;;;;5095984;28;20391;-59
2021/01/22 04:08:41;;;;;;;0.52;0.52;;;7.00;82.70;;;;;;5096137;28;20056;-59
2021/01/22 04:11:07;;;;;;;3.10;1.00;;;7.00;82.70;;;;;;5095510;28;20111;-59
2021/01/22 04:13:33;;;;;;;1.98;0.85;;;7.00;82.70;;;;;;5096180;28;20016;-59
2021/01/22 04:16:00;;;;;;;8.57;1.45;;;7.00;82.60;;;;;;5095853;28;20105;-59
2021/01/22 04:18:25;;;;;;;1.23;0.77;;;7.00;82.60;;;;;;5095263;28;20081;-59
2021/01/22 04:20:51;;;;;;;4.25;1.27;;;7.00;82.60;;;;;;5103970;28;20027;-59
2021/01/22 04:23:17;;;;;;;2.25;1.10;;;6.90;82.60;;;;;;5102411;28;20016;-60
2021/01/22 04:25:42;;;;;;;3.78;0.93;;;7.00;82.60;;;;;;5094916;28;20059;-59
2021/01/22 04:28:08;;;;;;;0.80;0.70;;;6.90;82.60;;;;;;5095839;28;20035;-60
2021/01/22 04:30:34;;;;;;;1.83;1.25;;;6.90;82.50;;;;;;5095733;28;20028;-59
2021/01/22 04:32:59;;;;;;;1.42;1.08;;;6.90;82.50;;;;;;5094635;28;20024;-59
2021/01/22 04:35:25;;;;;;;2.38;1.10;;;6.90;82.70;;;;;;5095523;28;20057;-59
2021/01/22 04:37:50;;;;;;;4.10;1.48;;;6.80;82.80;;;;;;5095380;28;20031;-59
2021/01/22 04:40:16;;;;;;;2.58;1.00;;;6.80;82.80;;;;;;5094899;28;20028;-59
2021/01/22 04:42:43;;;;;;;1.63;1.08;;;6.80;82.90;;;;;;5095523;28;20154;-59
2021/01/22 04:45:11;;;;;;;1.48;1.02;;;6.70;83.00;;;;;;5095267;28;20028;-59
2021/01/22 04:47:38;;;;;;;1.70;0.82;;;6.70;83.10;;;;;;5095218;28;20028;-60
2021/01/22 04:50:04;;;;;;;4.47;1.33;;;6.70;83.20;;;;;;5094934;28;20048;-59
2021/01/22 04:52:32;;;;;;;1.13;0.90;;;6.70;83.30;;;;;;5094726;28;20028;-60
2021/01/22 04:54:59;;;;;;;4.68;1.83;;;6.70;83.30;;;;;;5094943;28;20107;-59
2021/01/22 04:57:27;;;;;;;3.28;0.90;;;6.60;83.30;;;;;;5095313;28;20115;-59
2021/01/22 04:59:54;;;;;;;4.47;0.90;;;6.60;83.20;;;;;;5094350;28;20380;-59
2021/01/22 05:02:20;;;;;;;0.40;0.40;;;6.70;83.30;;;;;;5094985;28;20100;-60
2021/01/22 05:04:46;;;;;;;2.85;1.35;;;6.60;83.20;;;;;;5095005;28;20035;-60
2021/01/22 05:07:12;;;;;;;2.70;1.30;;;6.60;83.50;;;;;;5094529;28;20024;-60
2021/01/22 05:09:39;;;;;;;3.20;0.85;;;6.60;83.50;;;;;;5095290;28;20102;-59
2021/01/22 05:12:05;;;;;;;4.57;1.40;;;6.50;83.50;;;;;;5094808;28;20036;-59
2021/01/22 05:14:33;;;;;;;3.15;1.00;;;6.50;83.60;;;;;;5093983;28;20536;-59
2021/01/22 05:17:04;;;;;;;2.78;1.20;;;6.50;83.60;;;;;;5094579;28;20115;-59
2021/01/22 05:19:30;;;;;;;3.58;1.65;;;6.50;83.60;;;;;;5095010;28;20042;-59
2021/01/22 05:21:57;;;;;;;2.17;1.10;;;6.50;83.60;;;;;;5093836;28;20055;-59
2021/01/22 05:24:25;;;;;;;5.25;1.50;;;6.50;83.60;;;;;;5094586;28;20115;-59
2021/01/22 05:27:01;;;;;;;6.25;1.55;;;6.50;83.60;;;;;;5094629;28;20032;-59
2021/01/22 05:29:27;;;;;;;2.63;1.02;;;6.40;83.60;;;;;;5093643;28;20024;-59
2021/01/22 05:31:53;;;;;;;3.00;0.57;;;6.40;83.70;;;;;;5094743;28;20036;-59
2021/01/22 05:34:19;;;;;;;1.67;1.02;;;6.40;83.90;;;;;;5094260;28;20483;-60
2021/01/22 05:36:48;;;;;;;2.85;1.20;;;6.40;84.00;;;;;;5093850;28;20028;-59
2021/01/22 05:39:21;;;;;;;4.13;1.35;;;6.40;84.00;;;;;;5094155;28;20491;-59
2021/01/22 05:41:54;;;;;;;0.80;0.80;;;6.40;84.10;;;;;;5093521;28;20031;-59
2021/01/22 05:44:24;;;;;;;3.40;1.40;;;6.40;84.10;;;;;;5094117;28;20501;-59
2021/01/22 05:47:06;;;;;;;0.85;0.80;;;6.40;84.20;;;;;;5094320;28;20103;-59
2021/01/22 05:49:33;;;;;;;4.10;1.55;;;6.40;84.30;;;;;;5093208;28;20071;-59
2021/01/22 05:51:59;;;;;;;2.13;1.15;;;6.40;84.20;;;;;;5094140;28;20046;-59
2021/01/22 05:54:38;;;;;;;2.72;1.20;;;6.40;84.20;;;;;;5094126;28;20527;-59
2021/01/22 05:57:05;;;;;;;4.40;1.45;;;6.30;84.30;;;;;;5093463;28;20089;-59
2021/01/22 05:59:31;;;;;;;4.90;1.50;;;6.40;84.20;;;;;;5094114;28;20103;-59
2021/01/22 06:01:57;;;;;;;3.35;1.98;;;6.40;84.20;;;;;;5092983;28;20388;-59
2021/01/22 06:04:23;;;;;;;1.55;0.90;;;6.30;84.20;;;;;;5093214;28;20032;-59
2021/01/22 06:06:51;;;;;;;9.48;1.77;;;6.30;84.20;;;;;;5094748;28;20035;-60
2021/01/22 06:09:34;;;;;;;2.00;1.33;;;6.40;84.20;;;;;;5095170;28;20475;-59
2021/01/22 06:12:03;;;;;;;5.00;1.63;;;6.30;84.20;;;;;;5107766;28;20028;-59
2021/01/22 06:14:34;;;;;;;1.48;0.77;;;6.30;84.20;;;;;;5095112;28;20028;-60
2021/01/22 06:17:05;;;;;;;3.63;1.00;;;6.30;84.30;;;;;;5095487;28;20032;-60
2021/01/22 06:19:37;;;;;;;2.25;1.23;;;6.30;84.30;;;;;;5095007;28;20081;-60
2021/01/22 06:22:16;;;;;;;3.15;1.20;;;6.30;84.30;;;;;;5096266;28;20070;-60
2021/01/22 06:24:44;;;;;;;3.60;1.50;;;6.30;84.30;;;;;;5094170;28;20080;-60
2021/01/22 06:27:10;;;;;;;6.10;1.70;;;6.30;84.30;;;;;;5093512;28;20027;-60
2021/01/22 06:29:37;;;;;;;2.55;1.38;;;6.30;84.40;;;;;;5093291;28;20400;-60
2021/01/22 06:32:05;;;;;;;4.15;1.70;;;6.30;84.60;;;;;;5092650;28;20043;-60
2021/01/22 06:34:33;;;;;;;2.42;1.40;;;6.20;84.70;;;;;;5099093;28;20043;-61
2021/01/22 06:37:00;;;;;;;1.52;1.20;;;6.20;84.90;;;;;;5099686;28;20039;-62
2021/01/22 06:39:26;;;;;;;5.63;1.42;;;6.20;85.00;;;;;;5109551;28;20016;-62
2021/01/22 06:41:53;;;;;;;3.58;1.30;;;6.20;85.10;;;;;;5107689;28;20028;-60
2021/01/22 06:44:19;;;;;;;4.28;1.35;;;6.20;85.20;;;;;;5104040;28;20120;-60
2021/01/22 06:46:44;;;;;;;4.93;1.45;;;6.20;85.20;;;;;;5104727;28;20112;-60
2021/01/22 06:49:11;;;;;;;7.22;1.58;;;6.20;85.10;;;;;;5106013;28;20047;-60
2021/01/22 06:51:37;;;;;;;2.15;1.70;;;6.20;85.10;;;;;;5107359;28;20092;-60
2021/01/22 06:54:06;;;;;;;2.85;1.48;;;6.20;85.10;;;;;;5109002;28;20479;-61
2021/01/22 06:56:58;;;;;;;5.47;2.22;;;6.20;85.00;;;;;;5109071;28;20032;-60
2021/01/22 06:59:40;;;;;;;5.15;2.40;;;6.20;85.10;;;;;;5109060;28;20114;-60
2021/01/22 07:02:31;;;;;;;3.97;1.90;;;6.20;85.10;;;;;;5106728;28;20490;-60
2021/01/22 07:04:57;;;;;;;2.28;1.30;;;6.10;85.00;;;;;;5106156;28;20055;-61
2021/01/22 07:07:45;;;;;;;3.53;1.75;;;6.20;85.10;;;;;;5106541;28;20569;-60
2021/01/22 07:10:11;;;;;;;4.13;2.03;;;6.10;85.20;;;;;;5107462;28;20028;-60
2021/01/22 07:12:37;;;;;;;6.72;2.05;;;6.10;85.10;;;;;;5109785;28;20414;-60
2021/01/22 07:15:27;;;;;;;4.07;2.17;;;6.10;85.20;;;;;;5108764;28;20070;-60
2021/01/22 07:18:00;;;;;;;5.28;1.80;;;6.10;85.20;;;;;;5100233;28;20122;-61
2021/01/22 07:20:28;;;;;;;8.80;2.75;;;6.10;85.20;;;;;;5106870;28;20027;-60
2021/01/22 07:23:01;;;;;;;11.75;2.47;;;6.10;85.10;;;;;;5110321;28;20110;-62
2021/01/22 07:25:35;;;;;;;3.15;1.88;;;6.10;85.10;;;;;;5108378;28;20023;-61
2021/01/22 07:28:22;;;;;;;5.78;3.10;;;6.10;85.10;;;;;;5105815;28;20471;-61
2021/01/22 07:30:50;;;;;;;9.15;2.97;;;6.10;85.10;;;;;;5107369;28;20031;-61
2021/01/22 07:33:28;;;;;;;5.60;2.45;;;6.10;85.10;;;;;;5109557;28;20085;-61
2021/01/22 07:36:09;;;;;;;6.72;2.85;;;6.10;85.10;;;;;;5108407;28;20077;-60
2021/01/22 07:38:37;;;;;;;8.65;3.40;;;6.00;85.20;;;;;;5109170;28;20030;-62
2021/01/22 07:41:03;;;;;;;8.18;3.67;;;6.00;85.30;;;;;;5107527;28;20368;-60
2021/01/22 07:43:29;;;;;;;2.75;2.05;;;6.00;85.40;;;;;;5107642;28;20020;-60
2021/01/22 07:46:12;;;;;;;9.38;3.08;;;6.00;85.40;;;;;;5099890;28;20032;-60
2021/01/22 07:48:38;;;;;;;11.38;3.30;;;6.00;85.50;;;;;;5105425;28;20165;-60
2021/01/22 07:51:33;;;;;;;3.85;1.92;;;6.00;85.50;;;;;;5103033;28;20043;-61
2021/01/22 07:54:01;;;;;;;8.10;2.75;;;6.00;85.60;;;;;;5095706;28;20138;-60
2021/01/22 07:56:43;;;;;;;10.15;3.45;;;6.00;85.50;;;;;;5102492;28;20062;-64
2021/01/22 07:59:11;;;;;;;8.25;2.70;;;6.00;85.50;;;;;;5101300;28;20119;-61
2021/01/22 08:01:37;;;;;;;4.45;2.35;;;6.00;85.60;;;;;;5099077;28;20060;-61
2021/01/22 08:04:03;;;;;;;5.60;2.58;;;5.90;85.70;;;;;;5102421;28;20070;-61
2021/01/22 08:06:42;;;;;;;11.85;3.35;;;5.90;85.70;;;;;;5098159;28;20036;-61
2021/01/22 08:09:16;;;;;;;8.82;2.60;;;5.90;85.90;;;;;;5099884;28;20046;-61
2021/01/22 08:11:43;;;;;;;8.25;2.95;;;5.90;85.90;;;;;;5101755;28;20028;-61
2021/01/22 08:14:09;;;;;;;6.75;2.42;;;5.90;85.90;;;;;;5098978;28;20127;-61
2021/01/22 08:16:37;;;;;;;13.57;3.15;;;5.80;86.00;;;;;;5102572;28;20126;-61
2021/01/22 08:19:06;;;;;;;1.52;1.05;;;5.80;85.90;;;;;;5102130;28;20024;-62
2021/01/22 08:21:37;;;;;;;5.28;2.63;;;5.90;86.00;;;;;;5108277;28;20039;-62
2021/01/22 08:24:10;;;;;;;8.95;2.58;;;5.90;86.00;;;;;;5102304;28;20038;-61
2021/01/22 08:26:39;;;;;;;10.23;2.50;;;5.90;85.90;;;;;;5093610;28;20793;-62
2021/01/22 08:29:05;;;;;;;4.40;2.25;;;5.90;85.90;;;;;;5101054;28;20038;-61
2021/01/22 08:31:32;;;;;;;6.70;2.30;;;5.90;85.70;;;;;;5113852;28;20099;-61
2021/01/22 08:33:59;;;;;;;4.47;1.73;;;5.90;85.80;;;;;;5112127;28;20028;-61
2021/01/22 08:36:27;;;;;;;7.95;2.20;;;5.90;85.80;;;;;;5112184;28;20047;-61
2021/01/22 08:38:59;;;;;;;10.60;2.45;;;5.90;85.80;;;;;;5106273;28;20376;-61
2021/01/22 08:41:26;;;;;;;9.25;2.30;;;5.90;85.70;;;;;;5110632;28;20042;-61
2021/01/22 08:43:53;;;;;;;9.73;2.95;;;5.90;85.70;;;;;;5113652;28;20035;-63
2021/01/22 08:46:20;;;;;;;14.60;2.67;;;5.90;85.70;;;;;;5103835;28;20391;-61
2021/01/22 08:48:46;;;;;;;6.03;2.88;;;5.90;85.70;;;;;;5113317;28;20035;-61
2021/01/22 08:51:12;;;;;;;11.40;1.85;;;5.90;85.70;;;;;;5101022;28;20040;-60
2021/01/22 08:53:52;;;;;;;7.22;2.40;;;5.90;85.70;;;;;;5097365;28;20044;-60
2021/01/22 08:56:21;;;;;;;3.33;1.83;;;5.90;85.80;;;;;;5107944;28;20302;-60
2021/01/22 08:58:59;;;;;;;6.72;2.58;;;5.90;85.90;;;;;;5111838;28;20050;-60
2021/01/22 09:01:45;;;;;;;7.55;2.22;;;5.90;85.90;;;;;;5112144;28;20031;-60
2021/01/22 09:04:24;;;;;;;6.38;2.08;;;5.90;86.00;;;;;;5111511;28;20057;-60
2021/01/22 09:06:52;;;;;;;2.05;1.30;;;5.90;86.10;;;;;;5107016;28;20031;-60
2021/01/22 09:09:42;;;;;;;5.57;1.75;;;5.90;86.20;;;;;;5102870;28;20498;-61
2021/01/22 09:12:11;;;;;;;10.48;3.03;;;5.90;86.30;;;;;;5100264;28;20043;-60
2021/01/22 09:14:49;;;;;;;10.35;2.28;;;5.90;86.30;;;;;;5104044;28;20016;-60
2021/01/22 09:17:22;;;;;;;8.55;2.30;;;5.90;86.40;;;;;;5105865;28;20031;-63
2021/01/22 09:19:58;;;;;;;6.20;2.13;;;5.90;86.50;;;;;;5107977;28;20042;-61
2021/01/22 09:22:25;;;;;;;9.82;2.88;;;5.90;86.60;;;;;;5108333;28;20023;-61
2021/01/22 09:24:51;;;;;;;10.95;2.55;;;5.90;86.70;;;;;;5111934;28;20031;-61
2021/01/22 09:27:16;;;;;;;5.90;1.58;;;5.90;86.70;;;;;;5109898;28;20031;-61
2021/01/22 09:29:42;;;;;;;6.72;2.08;;;6.00;86.80;;;;;;5110950;28;20027;-61
2021/01/22 09:32:08;;;;;;;5.78;2.17;;;5.90;86.70;;;;;;5111792;28;20091;-61
2021/01/22 09:34:34;;;;;;;5.10;2.22;;;6.00;86.90;;;;;;5097840;28;20181;-62
2021/01/22 09:37:03;;;;;;;11.10;2.50;;;5.90;86.80;;;;;;5111201;28;20036;-62
2021/01/22 09:39:29;;;;;;;4.43;1.88;;;6.00;87.10;;;;;;5110565;28;20035;-61
2021/01/22 09:41:54;;;;;;;6.57;1.75;;;6.00;87.00;;;;;;5109101;28;20027;-60
2021/01/22 09:44:20;;;;;;;16.13;2.47;;;6.00;87.00;;;;;;5107074;28;20386;-60
2021/01/22 09:46:46;;;;;;;7.88;1.77;;;6.00;87.20;;;;;;5108513;28;20165;-60
2021/01/22 09:49:12;;;;;;;6.05;1.90;;;6.00;87.20;;;;;;5110114;28;20050;-61
2021/01/22 09:51:37;;;;;;;9.35;2.65;;;6.00;87.20;;;;;;5105175;28;20036;-60
2021/01/22 09:54:03;;;;;;;16.83;2.47;;;6.00;87.20;;;;;;5107869;28;20028;-61
2021/01/22 09:56:29;;;;;;;10.98;2.20;;;6.00;87.30;;;;;;5102438;28;20047;-61
2021/01/22 09:58:55;;;;;;;11.13;2.40;;;6.10;87.50;;;;;;5099311;28;20040;-61
2021/01/22 10:01:20;;;;;;;3.83;1.60;;;6.10;87.50;;;;;;5101380;28;20073;-61
2021/01/22 10:03:46;;;;;;;8.00;2.20;;;6.10;87.50;;;;;;5103638;28;20132;-63
2021/01/22 10:06:13;;;;;;;7.40;1.73;;;6.10;87.60;;;;;;5108290;28;20042;-63
2021/01/22 10:08:39;;;;;;;6.90;1.52;;;6.10;87.70;;;;;;5100790;28;20040;-63
2021/01/22 10:11:05;;;;;;;5.15;2.03;;;6.10;87.80;;;;;;5099087;28;20103;-62
2021/01/22 10:13:30;;;;;;;4.75;1.75;;;6.20;87.90;;;;;;5104461;28;20031;-62
2021/01/22 10:15:57;;;;;;;11.15;2.03;;;6.10;87.90;;;;;;5105712;28;20039;-62
2021/01/22 10:18:23;;;;;;;6.03;1.95;;;6.20;87.90;;;;;;5106750;28;20032;-61
2021/01/22 10:20:50;;;;;;;8.25;2.60;;;6.10;87.90;;;;;;5112459;28;20072;-62
2021/01/22 10:23:16;;;;;;;4.55;1.63;;;6.20;88.10;;;;;;5108839;27;20487;-64
2021/01/22 10:25:41;;;;;;;8.32;2.33;;;6.20;88.20;;;;;;5094221;28;20039;-62
2021/01/22 10:28:07;;;;;;;9.88;2.67;;;6.20;88.10;;;;;;5092368;28;20135;-62
2021/01/22 10:30:33;;;;;;;6.18;1.67;;;6.30;88.10;;;;;;5091636;28;20028;-62
2021/01/22 10:32:58;;;;;;;5.72;2.15;;;6.30;88.20;;;;;;5092268;28;20502;-62
2021/01/22 10:35:24;;;;;;;10.00;2.75;;;6.30;88.30;;;;;;5092017;28;20117;-62
2021/01/22 10:37:50;;;;;;;6.82;1.90;;;6.30;88.30;;;;;;5091737;28;20035;-62
2021/01/22 10:40:16;;;;;;;6.88;2.58;;;6.30;88.30;;;;;;5111829;28;20061;-61
2021/01/22 10:42:42;;;;;;;8.70;2.33;;;6.30;88.30;;;;;;5110109;28;20035;-61
2021/01/22 10:45:08;;;;;;;12.07;2.28;;;6.40;88.40;;;;;;5107938;28;20051;-61
2021/01/22 10:47:34;;;;;;;8.40;2.38;;;6.40;88.40;;;;;;5107706;28;20052;-61
2021/01/22 10:50:00;;;;;;;22.55;3.05;;;6.40;88.40;;;;;;5107370;28;20074;-62
2021/01/22 10:52:25;;;;;;;13.20;2.80;;;6.40;88.50;;;;;;5106903;28;20517;-63
2021/01/22 10:54:51;;;;;;;7.80;2.47;;;6.50;88.50;;;;;;5103756;28;20031;-61
2021/01/22 10:57:17;;;;;;;8.80;2.03;;;6.50;88.60;;;;;;5106684;28;20031;-61
2021/01/22 10:59:43;;;;;;;15.52;2.55;;;6.50;88.70;;;;;;5103422;28;20110;-62
2021/01/22 11:02:09;;;;;;;7.28;2.00;;;6.50;88.70;;;;;;5107235;28;20034;-62
2021/01/22 11:04:35;;;;;;;4.93;1.65;;;6.60;88.80;;;;;;5111823;28;20024;-65
2021/01/22 11:07:03;;;;;;;6.80;2.30;;;6.60;88.90;;;;;;5094079;28;20099;-64
2021/01/22 11:09:30;;;;;;;9.55;2.60;;;6.60;89.00;;;;;;5095422;28;20039;-62
2021/01/22 11:11:56;;;;;;;10.98;3.05;;;6.70;89.00;;;;;;5096163;28;20467;-63
2021/01/22 11:14:22;;;;;;;9.00;2.88;;;6.70;89.10;;;;;;5093618;28;20032;-63
2021/01/22 11:16:47;;;;;;;17.38;3.13;;;6.80;89.10;;;;;;5097128;28;20045;-63
2021/01/22 11:19:13;;;;;;;11.10;3.13;;;6.80;89.10;;;;;;5093440;28;20020;-63
2021/01/22 11:21:39;;;;;;;3.97;1.88;;;6.80;89.10;;;;;;5097044;28;20081;-62
2021/01/22 11:24:05;;;;;;;10.00;2.85;;;6.80;89.30;;;;;;5094564;28;20020;-63
2021/01/22 11:26:32;;;;;;;18.83;2.95;;;6.90;89.50;;;;;;5091056;28;20376;-62
2021/01/22 11:28:57;;;;;;;14.98;2.55;;;6.90;89.50;;;;;;5107477;28;20063;-62
2021/01/22 11:31:23;;;;;;;12.18;2.90;;;6.80;89.70;;;;;;5105257;28;20066;-63
2021/01/22 11:33:48;;;;;;;15.13;2.10;;;6.80;89.60;;;;;;5098520;28;20085;-63
2021/01/22 11:36:14;;;;;;;13.18;2.90;;;6.90;89.70;;;;;;5103581;28;20048;-63
2021/01/22 11:38:40;;;;;;;10.10;2.88;;;6.80;89.70;;;;;;5109850;28;20019;-62
2021/01/22 11:41:05;;;;;;;9.05;2.08;;;6.90;90.00;;;;;;5105008;28;20030;-62
2021/01/22 11:43:31;;;;;;;20.20;2.33;;;6.90;90.00;;;;;;5109013;28;20030;-64
2021/01/22 11:45:57;;;;;;;24.67;3.28;;;6.90;90.10;;;;;;5108148;28;20421;-62
2021/01/22 11:48:23;;;;;;;10.35;3.22;;;6.90;90.00;;;;;;5107502;28;20106;-62
2021/01/22 11:50:48;;;;;;;7.65;2.50;;;6.90;89.90;;;;;;5109368;28;20131;-62
2021/01/22 11:53:14;;;;;;;18.08;2.70;;;6.90;90.00;;;;;;5105612;28;20063;-62
2021/01/22 11:55:41;;;;;;;15.63;3.30;;;7.00;89.90;;;;;;5108264;28;20042;-62
2021/01/22 11:58:07;;;;;;;8.55;2.40;;;7.00;89.70;;;;;;5110040;28;20027;-62
2021/01/22 12:00:32;;;;;;;14.02;3.13;;;7.10;89.50;;;;;;5109320;28;20031;-62
2021/01/22 12:02:58;;;;;;;16.20;2.42;;;7.10;89.40;;;;;;5108058;28;20382;-63
2021/01/22 12:05:24;;;;;;;9.93;2.97;;;7.00;89.30;;;;;;5111181;28;20023;-62
2021/01/22 12:07:50;;;;;;;10.70;2.70;;;7.10;89.40;;;;;;5111946;28;20036;-62
2021/01/22 12:10:16;;;;;;;11.77;2.63;;;7.10;89.20;;;;;;5111903;28;20024;-62
2021/01/22 12:12:42;;;;;;;9.57;2.45;;;7.20;89.00;;;;;;5111784;28;20035;-62
2021/01/22 12:15:08;;;;;;;7.85;2.40;;;7.20;88.80;;;;;;5110900;28;20035;-62
2021/01/22 12:17:34;;;;;;;11.18;2.67;;;7.20;88.40;;;;;;5112366;28;20027;-61
2021/01/22 12:20:00;;;;;;;10.98;2.17;;;7.10;88.50;;;;;;5109303;28;20062;-62
2021/01/22 12:22:25;;;;;;;7.05;2.00;;;7.20;88.60;;;;;;5112834;28;20020;-63
2021/01/22 12:24:51;;;;;;;11.73;2.65;;;7.20;88.40;;;;;;5110971;28;20012;-62
2021/01/22 12:27:18;;;;;;;10.30;2.80;;;7.30;88.30;;;;;;5108367;28;20459;-63
2021/01/22 12:29:44;;;;;;;12.85;2.65;;;7.30;87.80;;;;;;5110871;28;20019;-62
2021/01/22 12:32:09;;;;;;;13.50;2.60;;;7.20;87.90;;;;;;5112958;28;20039;-62
2021/01/22 12:34:35;;;;;;;14.02;3.03;;;7.30;87.90;;;;;;5111240;28;20073;-63
2021/01/22 12:37:00;;;;;;;9.65;2.65;;;7.30;87.80;;;;;;5111839;27;20110;-62
2021/01/22 12:39:26;;;;;;;13.23;3.10;;;7.30;87.40;;;;;;5110774;28;20506;-62
2021/01/22 12:41:52;;;;;;;11.63;2.83;;;7.30;87.00;;;;;;5114125;28;20027;-62
2021/01/22 12:44:17;;;;;;;10.63;2.90;;;7.20;86.90;;;;;;5112440;28;20028;-61
2021/01/22 12:46:43;;;;;;;13.18;2.80;;;7.30;87.00;;;;;;5111740;28;20020;-61
2021/01/22 12:49:09;;;;;;;10.68;2.00;;;7.30;86.90;;;;;;5112765;28;20070;-61
2021/01/22 12:51:35;;;;;;;13.10;2.63;;;7.40;86.80;;;;;;5109255;28;20463;-61
2021/01/22 12:54:01;;;;;;;10.20;2.50;;;7.40;86.70;;;;;;5110817;28;20024;-61
2021/01/22 12:56:26;;;;;;;13.68;2.75;;;7.50;86.40;;;;;;5109229;28;20434;-61
2021/01/22 12:58:53;;;;;;;10.55;2.47;;;7.60;86.40;;;;;;5107069;28;20569;-61
2021/01/22 13:01:19;;;;;;;5.97;2.00;;;7.60;86.40;;;;;;5108875;28;20040;-61